sensor_id;sensor_type;location;lat;lon;timestamp;P1;durP1;ratioP1;P2;durP2;ratioP2
24547;SDS011;12713;51.624;4.924;2022-09-27T00:00:41;3.00;;;0.80;;
24547;SDS011;12713;51.624;4.924;2022-09-27T00:03:08;4.43;;;1.05;;
24547;SDS011;12713;51.624;4.924;2022-09-27T00:05:34;6.93;;;1.17;;
24547;SDS011;12713;51.624;4.924;2022-09-27T00:08:00;3.13;;;0.98;;
24547;SDS011;12713;51.624;4.924;2022-09-27T00:10:26;4.03;;;0.88;;
24547;SDS011;12713;51.624;4.924;2022-09-27T00:12:53;3.08;;;0.75;;
24547;SDS011;12713;51.624;4.924;2022-09-27T00:15:19;4.75;;;0.90;;
24547;SDS011;12713;51.624;4.924;2022-09-27T00:17:45;5.25;;;0.80;;
24547;SDS011;12713;51.624;4.924;2022-09-27T00:20:15;2.80;;;1.13;;
24547;SDS011;12713;51.624;4.924;2022-09-27T00:22:42;4.72;;;0.75;;
24547;SDS011;12713;51.624;4.924;2022-09-27T00:25:08;7.55;;;1.05;;
24547;SDS011;12713;51.624;4.924;2022-09-27T00:27:34;3.13;;;0.77;;
24547;SDS011;12713;51.624;4.924;2022-09-27T00:30:00;4.97;;;0.85;;
24547;SDS011;12713;51.624;4.924;2022-09-27T00:32:26;7.45;;;1.08;;
24547;SDS011;12713;51.624;4.924;2022-09-27T00:34:52;4.88;;;1.05;;
24547;SDS011;12713;51.624;4.924;2022-09-27T00:37:18;4.78;;;1.15;;
24547;SDS011;12713;51.624;4.924;2022-09-27T00:39:45;2.90;;;0.80;;
24547;SDS011;12713;51.624;4.924;2022-09-27T00:42:11;9.95;;;1.15;;
24547;SDS011;12713;51.624;4.924;2022-09-27T00:49:53;3.40;;;1.38;;
24547;SDS011;12713;51.624;4.924;2022-09-27T00:52:27;6.72;;;1.23;;
24547;SDS011;12713;51.624;4.924;2022-09-27T00:54:56;6.38;;;1.00;;
24547;SDS011;12713;51.624;4.924;2022-09-27T00:57:25;7.40;;;1.27;;
24547;SDS011;12713;51.624;4.924;2022-09-27T00:59:52;5.88;;;1.58;;
24547;SDS011;12713;51.624;4.924;2022-09-27T01:02:20;8.38;;;1.10;;
24547;SDS011;12713;51.624;4.924;2022-09-27T01:04:46;4.85;;;1.20;;
24547;SDS011;12713;51.624;4.924;2022-09-27T01:07:13;3.63;;;0.93;;
24547;SDS011;12713;51.624;4.924;2022-09-27T01:09:39;5.38;;;0.93;;
24547;SDS011;12713;51.624;4.924;2022-09-27T01:20:04;5.07;;;0.80;;
24547;SDS011;12713;51.624;4.924;2022-09-27T01:27:31;6.40;;;0.93;;
24547;SDS011;12713;51.624;4.924;2022-09-27T01:33:07;9.00;;;0.98;;
24547;SDS011;12713;51.624;4.924;2022-09-27T01:35:44;12.95;;;0.93;;
24547;SDS011;12713;51.624;4.924;2022-09-27T01:38:16;10.18;;;1.88;;
24547;SDS011;12713;51.624;4.924;2022-09-27T01:40:48;9.70;;;1.98;;
24547;SDS011;12713;51.624;4.924;2022-09-27T01:43:23;10.35;;;1.50;;
24547;SDS011;12713;51.624;4.924;2022-09-27T01:45:59;7.55;;;1.40;;
24547;SDS011;12713;51.624;4.924;2022-09-27T01:48:35;7.45;;;1.65;;
24547;SDS011;12713;51.624;4.924;2022-09-27T01:51:05;11.02;;;1.50;;
24547;SDS011;12713;51.624;4.924;2022-09-27T01:55:58;7.95;;;1.45;;
24547;SDS011;12713;51.624;4.924;2022-09-27T02:00:59;5.97;;;1.10;;
24547;SDS011;12713;51.624;4.924;2022-09-27T02:03:36;7.68;;;1.60;;
24547;SDS011;12713;51.624;4.924;2022-09-27T02:06:07;2.63;;;1.10;;
24547;SDS011;12713;51.624;4.924;2022-09-27T02:08:35;4.60;;;1.80;;
24547;SDS011;12713;51.624;4.924;2022-09-27T02:11:07;11.98;;;1.40;;
24547;SDS011;12713;51.624;4.924;2022-09-27T02:13:39;4.53;;;1.20;;
24547;SDS011;12713;51.624;4.924;2022-09-27T02:16:13;6.78;;;1.17;;
24547;SDS011;12713;51.624;4.924;2022-09-27T02:21:10;5.63;;;1.35;;
24547;SDS011;12713;51.624;4.924;2022-09-27T02:23:40;7.60;;;1.05;;
24547;SDS011;12713;51.624;4.924;2022-09-27T02:26:15;5.32;;;1.60;;
24547;SDS011;12713;51.624;4.924;2022-09-27T02:29:31;6.95;;;1.35;;
24547;SDS011;12713;51.624;4.924;2022-09-27T02:31:29;6.80;;;1.67;;
24547;SDS011;12713;51.624;4.924;2022-09-27T02:34:06;9.18;;;1.92;;
24547;SDS011;12713;51.624;4.924;2022-09-27T02:36:33;5.10;;;1.83;;
24547;SDS011;12713;51.624;4.924;2022-09-27T02:39:00;7.35;;;1.80;;
24547;SDS011;12713;51.624;4.924;2022-09-27T02:41:26;4.72;;;1.50;;
24547;SDS011;12713;51.624;4.924;2022-09-27T02:43:53;7.05;;;1.35;;
24547;SDS011;12713;51.624;4.924;2022-09-27T02:49:03;9.52;;;1.88;;
24547;SDS011;12713;51.624;4.924;2022-09-27T02:54:39;5.93;;;1.10;;
24547;SDS011;12713;51.624;4.924;2022-09-27T03:00:04;5.57;;;1.13;;
24547;SDS011;12713;51.624;4.924;2022-09-27T03:05:23;8.45;;;1.35;;
24547;SDS011;12713;51.624;4.924;2022-09-27T03:07:50;8.05;;;1.30;;
24547;SDS011;12713;51.624;4.924;2022-09-27T03:10:20;5.03;;;1.40;;
24547;SDS011;12713;51.624;4.924;2022-09-27T03:12:46;6.75;;;1.60;;
24547;SDS011;12713;51.624;4.924;2022-09-27T03:15:12;10.95;;;1.60;;
24547;SDS011;12713;51.624;4.924;2022-09-27T03:17:38;3.83;;;1.13;;
24547;SDS011;12713;51.624;4.924;2022-09-27T03:20:05;5.85;;;1.40;;
24547;SDS011;12713;51.624;4.924;2022-09-27T03:22:31;4.13;;;1.33;;
24547;SDS011;12713;51.624;4.924;2022-09-27T03:24:57;8.38;;;1.42;;
24547;SDS011;12713;51.624;4.924;2022-09-27T03:27:23;5.65;;;1.00;;
24547;SDS011;12713;51.624;4.924;2022-09-27T03:29:49;4.63;;;0.82;;
24547;SDS011;12713;51.624;4.924;2022-09-27T03:32:15;11.48;;;1.13;;
24547;SDS011;12713;51.624;4.924;2022-09-27T03:34:42;7.05;;;1.75;;
24547;SDS011;12713;51.624;4.924;2022-09-27T03:37:08;3.10;;;1.20;;
24547;SDS011;12713;51.624;4.924;2022-09-27T03:39:34;5.28;;;1.20;;
24547;SDS011;12713;51.624;4.924;2022-09-27T03:42:00;2.92;;;1.20;;
24547;SDS011;12713;51.624;4.924;2022-09-27T03:44:26;3.50;;;0.95;;
24547;SDS011;12713;51.624;4.924;2022-09-27T03:46:52;3.90;;;1.20;;
24547;SDS011;12713;51.624;4.924;2022-09-27T03:49:18;3.63;;;0.75;;
24547;SDS011;12713;51.624;4.924;2022-09-27T03:51:44;6.28;;;0.90;;
24547;SDS011;12713;51.624;4.924;2022-09-27T03:54:10;4.65;;;1.42;;
24547;SDS011;12713;51.624;4.924;2022-09-27T03:56:36;9.48;;;1.52;;
24547;SDS011;12713;51.624;4.924;2022-09-27T03:59:02;2.35;;;0.80;;
24547;SDS011;12713;51.624;4.924;2022-09-27T04:01:28;5.65;;;0.82;;
24547;SDS011;12713;51.624;4.924;2022-09-27T04:03:54;4.80;;;1.02;;
24547;SDS011;12713;51.624;4.924;2022-09-27T04:06:20;7.47;;;1.10;;
24547;SDS011;12713;51.624;4.924;2022-09-27T04:08:47;3.00;;;1.33;;
24547;SDS011;12713;51.624;4.924;2022-09-27T04:11:14;3.53;;;1.00;;
24547;SDS011;12713;51.624;4.924;2022-09-27T04:13:40;4.75;;;1.00;;
24547;SDS011;12713;51.624;4.924;2022-09-27T04:16:08;3.42;;;0.90;;
24547;SDS011;12713;51.624;4.924;2022-09-27T04:18:34;3.42;;;0.95;;
24547;SDS011;12713;51.624;4.924;2022-09-27T04:21:00;3.75;;;0.90;;
24547;SDS011;12713;51.624;4.924;2022-09-27T04:23:26;2.88;;;1.00;;
24547;SDS011;12713;51.624;4.924;2022-09-27T04:25:52;2.35;;;0.70;;
24547;SDS011;12713;51.624;4.924;2022-09-27T04:28:18;4.40;;;0.98;;
24547;SDS011;12713;51.624;4.924;2022-09-27T04:30:44;4.53;;;1.27;;
24547;SDS011;12713;51.624;4.924;2022-09-27T04:33:11;4.20;;;1.00;;
24547;SDS011;12713;51.624;4.924;2022-09-27T04:35:37;8.05;;;1.40;;
24547;SDS011;12713;51.624;4.924;2022-09-27T04:38:21;6.10;;;1.10;;
24547;SDS011;12713;51.624;4.924;2022-09-27T04:40:48;5.45;;;1.60;;
24547;SDS011;12713;51.624;4.924;2022-09-27T04:43:14;3.28;;;1.00;;
24547;SDS011;12713;51.624;4.924;2022-09-27T04:45:42;3.75;;;1.00;;
24547;SDS011;12713;51.624;4.924;2022-09-27T04:48:08;4.95;;;1.17;;
24547;SDS011;12713;51.624;4.924;2022-09-27T04:50:34;2.95;;;0.70;;
24547;SDS011;12713;51.624;4.924;2022-09-27T04:53:00;4.18;;;1.02;;
24547;SDS011;12713;51.624;4.924;2022-09-27T04:55:26;3.00;;;0.68;;
24547;SDS011;12713;51.624;4.924;2022-09-27T04:57:52;6.65;;;1.23;;
24547;SDS011;12713;51.624;4.924;2022-09-27T05:00:19;4.10;;;0.85;;
24547;SDS011;12713;51.624;4.924;2022-09-27T05:02:45;5.40;;;0.90;;
24547;SDS011;12713;51.624;4.924;2022-09-27T05:05:12;3.17;;;1.15;;
24547;SDS011;12713;51.624;4.924;2022-09-27T05:07:38;3.60;;;0.90;;
24547;SDS011;12713;51.624;4.924;2022-09-27T05:10:05;1.75;;;0.82;;
24547;SDS011;12713;51.624;4.924;2022-09-27T05:12:31;7.63;;;0.80;;
24547;SDS011;12713;51.624;4.924;2022-09-27T05:14:57;5.97;;;0.80;;
24547;SDS011;12713;51.624;4.924;2022-09-27T05:17:24;3.00;;;0.70;;
24547;SDS011;12713;51.624;4.924;2022-09-27T05:19:50;3.70;;;0.85;;
24547;SDS011;12713;51.624;4.924;2022-09-27T05:22:16;3.97;;;1.00;;
24547;SDS011;12713;51.624;4.924;2022-09-27T05:24:44;4.45;;;0.80;;
24547;SDS011;12713;51.624;4.924;2022-09-27T05:27:14;2.53;;;0.60;;
24547;SDS011;12713;51.624;4.924;2022-09-27T05:32:10;2.17;;;0.68;;
24547;SDS011;12713;51.624;4.924;2022-09-27T05:34:38;2.55;;;0.73;;
24547;SDS011;12713;51.624;4.924;2022-09-27T05:37:05;5.35;;;0.80;;
24547;SDS011;12713;51.624;4.924;2022-09-27T05:39:31;3.95;;;1.00;;
24547;SDS011;12713;51.624;4.924;2022-09-27T05:41:57;2.65;;;0.80;;
24547;SDS011;12713;51.624;4.924;2022-09-27T05:44:23;1.15;;;0.60;;
24547;SDS011;12713;51.624;4.924;2022-09-27T05:46:52;6.40;;;0.75;;
24547;SDS011;12713;51.624;4.924;2022-09-27T05:49:18;3.50;;;0.80;;
24547;SDS011;12713;51.624;4.924;2022-09-27T05:51:44;3.17;;;0.90;;
24547;SDS011;12713;51.624;4.924;2022-09-27T05:54:11;2.30;;;0.60;;
24547;SDS011;12713;51.624;4.924;2022-09-27T05:56:37;2.42;;;0.70;;
24547;SDS011;12713;51.624;4.924;2022-09-27T05:59:03;2.50;;;1.00;;
24547;SDS011;12713;51.624;4.924;2022-09-27T06:01:29;5.45;;;1.05;;
24547;SDS011;12713;51.624;4.924;2022-09-27T06:03:55;3.42;;;0.80;;
24547;SDS011;12713;51.624;4.924;2022-09-27T06:06:21;7.15;;;1.25;;
24547;SDS011;12713;51.624;4.924;2022-09-27T06:08:47;5.55;;;1.25;;
24547;SDS011;12713;51.624;4.924;2022-09-27T06:11:14;4.95;;;1.10;;
24547;SDS011;12713;51.624;4.924;2022-09-27T06:13:40;7.53;;;1.15;;
24547;SDS011;12713;51.624;4.924;2022-09-27T06:16:07;6.47;;;0.95;;
24547;SDS011;12713;51.624;4.924;2022-09-27T06:18:33;5.53;;;1.40;;
24547;SDS011;12713;51.624;4.924;2022-09-27T06:20:59;5.10;;;1.42;;
24547;SDS011;12713;51.624;4.924;2022-09-27T06:23:26;2.25;;;1.10;;
24547;SDS011;12713;51.624;4.924;2022-09-27T06:25:52;5.68;;;1.60;;
24547;SDS011;12713;51.624;4.924;2022-09-27T06:28:19;3.80;;;1.20;;
24547;SDS011;12713;51.624;4.924;2022-09-27T06:30:48;2.38;;;1.25;;
24547;SDS011;12713;51.624;4.924;2022-09-27T06:33:15;1.42;;;0.98;;
24547;SDS011;12713;51.624;4.924;2022-09-27T06:35:42;2.50;;;1.40;;
24547;SDS011;12713;51.624;4.924;2022-09-27T06:38:12;4.25;;;1.55;;
24547;SDS011;12713;51.624;4.924;2022-09-27T06:40:40;4.75;;;1.38;;
24547;SDS011;12713;51.624;4.924;2022-09-27T06:43:09;4.93;;;1.23;;
24547;SDS011;12713;51.624;4.924;2022-09-27T06:45:36;7.47;;;1.20;;
24547;SDS011;12713;51.624;4.924;2022-09-27T06:48:02;4.30;;;1.88;;
24547;SDS011;12713;51.624;4.924;2022-09-27T06:50:29;6.55;;;2.00;;
24547;SDS011;12713;51.624;4.924;2022-09-27T06:52:56;4.65;;;1.90;;
24547;SDS011;12713;51.624;4.924;2022-09-27T06:55:22;5.18;;;2.05;;
24547;SDS011;12713;51.624;4.924;2022-09-27T06:57:52;5.70;;;2.67;;
24547;SDS011;12713;51.624;4.924;2022-09-27T07:00:37;5.68;;;2.58;;
24547;SDS011;12713;51.624;4.924;2022-09-27T07:03:03;5.13;;;2.55;;
24547;SDS011;12713;51.624;4.924;2022-09-27T07:05:29;7.55;;;2.22;;
24547;SDS011;12713;51.624;4.924;2022-09-27T07:07:56;7.75;;;3.38;;
24547;SDS011;12713;51.624;4.924;2022-09-27T07:10:23;5.68;;;2.80;;
24547;SDS011;12713;51.624;4.924;2022-09-27T07:12:49;5.78;;;2.67;;
24547;SDS011;12713;51.624;4.924;2022-09-27T07:15:16;4.60;;;3.85;;
24547;SDS011;12713;51.624;4.924;2022-09-27T07:17:43;7.95;;;4.65;;
24547;SDS011;12713;51.624;4.924;2022-09-27T07:20:09;10.98;;;6.53;;
24547;SDS011;12713;51.624;4.924;2022-09-27T07:22:39;7.35;;;5.40;;
24547;SDS011;12713;51.624;4.924;2022-09-27T07:25:06;10.23;;;7.65;;
24547;SDS011;12713;51.624;4.924;2022-09-27T07:27:32;9.77;;;7.32;;
24547;SDS011;12713;51.624;4.924;2022-09-27T07:29:59;12.23;;;9.20;;
24547;SDS011;12713;51.624;4.924;2022-09-27T07:32:25;10.60;;;6.70;;
24547;SDS011;12713;51.624;4.924;2022-09-27T07:34:51;14.02;;;9.98;;
24547;SDS011;12713;51.624;4.924;2022-09-27T07:37:17;13.07;;;9.70;;
24547;SDS011;12713;51.624;4.924;2022-09-27T07:39:43;11.18;;;9.50;;
24547;SDS011;12713;51.624;4.924;2022-09-27T07:42:09;9.43;;;8.20;;
24547;SDS011;12713;51.624;4.924;2022-09-27T07:44:35;11.95;;;6.97;;
24547;SDS011;12713;51.624;4.924;2022-09-27T07:47:01;14.32;;;8.25;;
24547;SDS011;12713;51.624;4.924;2022-09-27T07:49:27;11.68;;;6.18;;
24547;SDS011;12713;51.624;4.924;2022-09-27T07:51:53;8.65;;;6.25;;
24547;SDS011;12713;51.624;4.924;2022-09-27T07:54:20;7.32;;;6.05;;
24547;SDS011;12713;51.624;4.924;2022-09-27T07:56:46;12.98;;;7.03;;
24547;SDS011;12713;51.624;4.924;2022-09-27T07:59:12;9.57;;;7.55;;
24547;SDS011;12713;51.624;4.924;2022-09-27T08:01:38;12.43;;;7.63;;
24547;SDS011;12713;51.624;4.924;2022-09-27T08:04:04;15.52;;;8.07;;
24547;SDS011;12713;51.624;4.924;2022-09-27T08:06:30;13.88;;;8.50;;
24547;SDS011;12713;51.624;4.924;2022-09-27T08:08:56;12.25;;;8.93;;
24547;SDS011;12713;51.624;4.924;2022-09-27T08:11:25;7.93;;;6.65;;
24547;SDS011;12713;51.624;4.924;2022-09-27T08:13:51;15.63;;;8.95;;
24547;SDS011;12713;51.624;4.924;2022-09-27T08:16:17;10.55;;;8.77;;
24547;SDS011;12713;51.624;4.924;2022-09-27T08:18:43;13.40;;;9.23;;
24547;SDS011;12713;51.624;4.924;2022-09-27T08:21:09;12.50;;;8.60;;
24547;SDS011;12713;51.624;4.924;2022-09-27T08:23:35;17.25;;;9.98;;
24547;SDS011;12713;51.624;4.924;2022-09-27T08:26:02;25.65;;;10.40;;
24547;SDS011;12713;51.624;4.924;2022-09-27T08:28:28;17.05;;;9.05;;
24547;SDS011;12713;51.624;4.924;2022-09-27T08:30:55;15.23;;;8.60;;
24547;SDS011;12713;51.624;4.924;2022-09-27T08:33:23;13.52;;;7.82;;
24547;SDS011;12713;51.624;4.924;2022-09-27T08:35:50;11.52;;;8.25;;
24547;SDS011;12713;51.624;4.924;2022-09-27T08:38:16;10.55;;;7.20;;
24547;SDS011;12713;51.624;4.924;2022-09-27T08:40:50;13.85;;;6.85;;
24547;SDS011;12713;51.624;4.924;2022-09-27T08:46:04;11.45;;;7.47;;
24547;SDS011;12713;51.624;4.924;2022-09-27T08:48:32;13.63;;;6.47;;
24547;SDS011;12713;51.624;4.924;2022-09-27T08:50:59;11.23;;;6.35;;
24547;SDS011;12713;51.624;4.924;2022-09-27T08:53:33;12.82;;;6.18;;
24547;SDS011;12713;51.624;4.924;2022-09-27T08:56:01;10.77;;;6.05;;
24547;SDS011;12713;51.624;4.924;2022-09-27T09:00:58;9.50;;;5.20;;
24547;SDS011;12713;51.624;4.924;2022-09-27T09:03:27;12.20;;;4.88;;
24547;SDS011;12713;51.624;4.924;2022-09-27T09:08:38;10.52;;;4.60;;
24547;SDS011;12713;51.624;4.924;2022-09-27T09:19:34;7.55;;;2.90;;
24547;SDS011;12713;51.624;4.924;2022-09-27T09:35:18;7.57;;;2.13;;
24547;SDS011;12713;51.624;4.924;2022-09-27T09:37:48;6.20;;;1.83;;
24547;SDS011;12713;51.624;4.924;2022-09-27T09:40:16;5.20;;;1.58;;
24547;SDS011;12713;51.624;4.924;2022-09-27T09:45:21;5.60;;;1.52;;
24547;SDS011;12713;51.624;4.924;2022-09-27T09:50:26;7.18;;;1.83;;
24547;SDS011;12713;51.624;4.924;2022-09-27T09:52:55;4.22;;;1.20;;
24547;SDS011;12713;51.624;4.924;2022-09-27T09:55:24;5.28;;;1.45;;
24547;SDS011;12713;51.624;4.924;2022-09-27T09:58:00;6.07;;;1.50;;
24547;SDS011;12713;51.624;4.924;2022-09-27T10:00:27;7.28;;;1.30;;
24547;SDS011;12713;51.624;4.924;2022-09-27T10:02:57;4.88;;;1.40;;
24547;SDS011;12713;51.624;4.924;2022-09-27T10:05:24;6.13;;;1.30;;
24547;SDS011;12713;51.624;4.924;2022-09-27T10:07:51;4.38;;;1.40;;
24547;SDS011;12713;51.624;4.924;2022-09-27T10:10:18;4.32;;;1.50;;
24547;SDS011;12713;51.624;4.924;2022-09-27T10:12:45;7.72;;;1.63;;
24547;SDS011;12713;51.624;4.924;2022-09-27T10:15:16;7.28;;;1.98;;
24547;SDS011;12713;51.624;4.924;2022-09-27T10:17:44;5.68;;;1.92;;
24547;SDS011;12713;51.624;4.924;2022-09-27T10:20:30;4.75;;;1.27;;
24547;SDS011;12713;51.624;4.924;2022-09-27T10:23:14;3.30;;;1.33;;
24547;SDS011;12713;51.624;4.924;2022-09-27T10:25:44;5.90;;;1.38;;
24547;SDS011;12713;51.624;4.924;2022-09-27T10:28:24;2.10;;;1.02;;
24547;SDS011;12713;51.624;4.924;2022-09-27T10:30:54;2.90;;;1.67;;
24547;SDS011;12713;51.624;4.924;2022-09-27T10:33:21;4.40;;;1.55;;
24547;SDS011;12713;51.624;4.924;2022-09-27T10:35:47;2.60;;;0.95;;
24547;SDS011;12713;51.624;4.924;2022-09-27T10:40:50;3.25;;;1.38;;
24547;SDS011;12713;51.624;4.924;2022-09-27T10:43:30;3.70;;;1.70;;
24547;SDS011;12713;51.624;4.924;2022-09-27T10:48:32;2.33;;;1.48;;
24547;SDS011;12713;51.624;4.924;2022-09-27T10:51:02;3.85;;;2.00;;
24547;SDS011;12713;51.624;4.924;2022-09-27T10:53:29;5.15;;;1.40;;
24547;SDS011;12713;51.624;4.924;2022-09-27T10:55:55;3.47;;;0.90;;
24547;SDS011;12713;51.624;4.924;2022-09-27T10:58:32;3.17;;;1.30;;
24547;SDS011;12713;51.624;4.924;2022-09-27T11:00:59;2.88;;;0.85;;
24547;SDS011;12713;51.624;4.924;2022-09-27T11:03:27;2.67;;;1.23;;
24547;SDS011;12713;51.624;4.924;2022-09-27T11:05:54;5.10;;;1.70;;
24547;SDS011;12713;51.624;4.924;2022-09-27T11:08:32;3.22;;;1.20;;
24547;SDS011;12713;51.624;4.924;2022-09-27T11:11:15;4.05;;;1.33;;
24547;SDS011;12713;51.624;4.924;2022-09-27T11:13:56;2.75;;;0.82;;
24547;SDS011;12713;51.624;4.924;2022-09-27T11:38:05;3.08;;;1.20;;
24547;SDS011;12713;51.624;4.924;2022-09-27T11:43:04;2.97;;;1.08;;
24547;SDS011;12713;51.624;4.924;2022-09-27T12:01:57;7.55;;;1.52;;
24547;SDS011;12713;51.624;4.924;2022-09-27T12:07:15;3.20;;;0.90;;
24547;SDS011;12713;51.624;4.924;2022-09-27T12:09:46;2.58;;;1.00;;
24547;SDS011;12713;51.624;4.924;2022-09-27T12:12:20;2.47;;;1.05;;
24547;SDS011;12713;51.624;4.924;2022-09-27T12:15:03;2.78;;;1.08;;
24547;SDS011;12713;51.624;4.924;2022-09-27T12:17:32;6.63;;;1.35;;
24547;SDS011;12713;51.624;4.924;2022-09-27T12:20:02;2.67;;;1.05;;
24547;SDS011;12713;51.624;4.924;2022-09-27T12:22:35;4.38;;;1.13;;
24547;SDS011;12713;51.624;4.924;2022-09-27T12:25:02;3.72;;;1.63;;
24547;SDS011;12713;51.624;4.924;2022-09-27T12:27:36;5.03;;;1.45;;
24547;SDS011;12713;51.624;4.924;2022-09-27T12:30:04;5.82;;;1.40;;
24547;SDS011;12713;51.624;4.924;2022-09-27T12:32:52;8.18;;;1.50;;
24547;SDS011;12713;51.624;4.924;2022-09-27T12:40:25;4.07;;;1.48;;
24547;SDS011;12713;51.624;4.924;2022-09-27T12:45:20;4.70;;;1.50;;
24547;SDS011;12713;51.624;4.924;2022-09-27T12:47:56;2.10;;;1.30;;
24547;SDS011;12713;51.624;4.924;2022-09-27T12:52:55;5.50;;;1.73;;
24547;SDS011;12713;51.624;4.924;2022-09-27T12:55:33;4.53;;;1.65;;
24547;SDS011;12713;51.624;4.924;2022-09-27T12:58:13;6.95;;;1.85;;
24547;SDS011;12713;51.624;4.924;2022-09-27T13:01:25;3.75;;;1.80;;
24547;SDS011;12713;51.624;4.924;2022-09-27T13:13:47;3.90;;;2.08;;
24547;SDS011;12713;51.624;4.924;2022-09-27T13:16:13;5.88;;;1.90;;
24547;SDS011;12713;51.624;4.924;2022-09-27T13:24:18;7.93;;;1.75;;
24547;SDS011;12713;51.624;4.924;2022-09-27T13:26:51;4.78;;;1.10;;
24547;SDS011;12713;51.624;4.924;2022-09-27T13:29:23;6.97;;;1.50;;
24547;SDS011;12713;51.624;4.924;2022-09-27T13:39:47;4.18;;;1.02;;
24547;SDS011;12713;51.624;4.924;2022-09-27T13:42:20;3.38;;;1.30;;
24547;SDS011;12713;51.624;4.924;2022-09-27T13:44:50;3.35;;;1.00;;
24547;SDS011;12713;51.624;4.924;2022-09-27T13:47:26;5.13;;;1.40;;
24547;SDS011;12713;51.624;4.924;2022-09-27T13:49:59;6.50;;;1.58;;
24547;SDS011;12713;51.624;4.924;2022-09-27T13:54:54;3.85;;;1.00;;
24547;SDS011;12713;51.624;4.924;2022-09-27T14:00:19;3.83;;;1.10;;
24547;SDS011;12713;51.624;4.924;2022-09-27T14:05:45;4.07;;;1.38;;
24547;SDS011;12713;51.624;4.924;2022-09-27T14:08:15;6.18;;;1.13;;
24547;SDS011;12713;51.624;4.924;2022-09-27T14:10:44;4.07;;;0.90;;
24547;SDS011;12713;51.624;4.924;2022-09-27T14:13:14;3.40;;;0.93;;
24547;SDS011;12713;51.624;4.924;2022-09-27T14:15:41;2.30;;;0.93;;
24547;SDS011;12713;51.624;4.924;2022-09-27T14:18:09;4.03;;;0.95;;
24547;SDS011;12713;51.624;4.924;2022-09-27T14:20:45;3.97;;;1.15;;
24547;SDS011;12713;51.624;4.924;2022-09-27T14:23:15;6.88;;;1.38;;
24547;SDS011;12713;51.624;4.924;2022-09-27T14:25:45;3.03;;;1.10;;
24547;SDS011;12713;51.624;4.924;2022-09-27T14:28:28;6.13;;;1.40;;
24547;SDS011;12713;51.624;4.924;2022-09-27T14:31:04;3.20;;;1.63;;
24547;SDS011;12713;51.624;4.924;2022-09-27T14:33:31;5.30;;;1.33;;
24547;SDS011;12713;51.624;4.924;2022-09-27T14:35:58;3.45;;;1.35;;
24547;SDS011;12713;51.624;4.924;2022-09-27T14:38:43;3.83;;;1.20;;
24547;SDS011;12713;51.624;4.924;2022-09-27T14:41:12;2.70;;;0.95;;
24547;SDS011;12713;51.624;4.924;2022-09-27T14:43:43;5.00;;;0.95;;
24547;SDS011;12713;51.624;4.924;2022-09-27T14:46:22;4.22;;;1.20;;
24547;SDS011;12713;51.624;4.924;2022-09-27T14:48:49;7.70;;;1.25;;
24547;SDS011;12713;51.624;4.924;2022-09-27T14:51:19;4.00;;;1.20;;
24547;SDS011;12713;51.624;4.924;2022-09-27T14:53:52;4.45;;;0.85;;
24547;SDS011;12713;51.624;4.924;2022-09-27T14:56:24;7.90;;;1.30;;
24547;SDS011;12713;51.624;4.924;2022-09-27T14:58:57;9.38;;;1.23;;
24547;SDS011;12713;51.624;4.924;2022-09-27T15:01:26;4.20;;;1.13;;
24547;SDS011;12713;51.624;4.924;2022-09-27T15:03:53;3.60;;;1.02;;
24547;SDS011;12713;51.624;4.924;2022-09-27T15:06:19;2.72;;;1.20;;
24547;SDS011;12713;51.624;4.924;2022-09-27T15:08:45;5.57;;;1.25;;
24547;SDS011;12713;51.624;4.924;2022-09-27T15:11:13;3.63;;;1.40;;
24547;SDS011;12713;51.624;4.924;2022-09-27T15:13:40;3.90;;;1.17;;
24547;SDS011;12713;51.624;4.924;2022-09-27T15:16:07;4.03;;;1.65;;
24547;SDS011;12713;51.624;4.924;2022-09-27T15:21:07;5.10;;;2.90;;
24547;SDS011;12713;51.624;4.924;2022-09-27T15:23:35;15.70;;;2.58;;
24547;SDS011;12713;51.624;4.924;2022-09-27T15:26:36;3.85;;;1.50;;
24547;SDS011;12713;51.624;4.924;2022-09-27T15:28:54;4.72;;;1.40;;
24547;SDS011;12713;51.624;4.924;2022-09-27T15:31:30;3.17;;;1.05;;
24547;SDS011;12713;51.624;4.924;2022-09-27T15:33:59;3.67;;;1.23;;
24547;SDS011;12713;51.624;4.924;2022-09-27T15:37:27;3.70;;;1.48;;
24547;SDS011;12713;51.624;4.924;2022-09-27T15:42:08;5.35;;;1.65;;
24547;SDS011;12713;51.624;4.924;2022-09-27T15:44:37;6.07;;;3.83;;
24547;SDS011;12713;51.624;4.924;2022-09-27T15:47:04;3.75;;;1.90;;
24547;SDS011;12713;51.624;4.924;2022-09-27T15:49:30;5.63;;;1.52;;
24547;SDS011;12713;51.624;4.924;2022-09-27T15:52:01;6.05;;;3.38;;
24547;SDS011;12713;51.624;4.924;2022-09-27T15:54:30;6.70;;;3.75;;
24547;SDS011;12713;51.624;4.924;2022-09-27T15:57:00;5.55;;;3.25;;
24547;SDS011;12713;51.624;4.924;2022-09-27T15:59:29;6.40;;;1.80;;
24547;SDS011;12713;51.624;4.924;2022-09-27T16:01:56;3.03;;;1.50;;
24547;SDS011;12713;51.624;4.924;2022-09-27T16:04:23;4.13;;;1.70;;
24547;SDS011;12713;51.624;4.924;2022-09-27T16:06:55;7.55;;;2.85;;
24547;SDS011;12713;51.624;4.924;2022-09-27T16:09:21;5.72;;;2.70;;
24547;SDS011;12713;51.624;4.924;2022-09-27T16:11:48;2.70;;;1.67;;
24547;SDS011;12713;51.624;4.924;2022-09-27T16:14:14;6.10;;;1.67;;
24547;SDS011;12713;51.624;4.924;2022-09-27T16:16:52;9.15;;;1.80;;
24547;SDS011;12713;51.624;4.924;2022-09-27T16:19:19;3.08;;;1.33;;
24547;SDS011;12713;51.624;4.924;2022-09-27T16:21:45;4.43;;;1.17;;
24547;SDS011;12713;51.624;4.924;2022-09-27T16:24:12;5.45;;;1.50;;
24547;SDS011;12713;51.624;4.924;2022-09-27T16:26:38;5.40;;;1.33;;
24547;SDS011;12713;51.624;4.924;2022-09-27T16:29:08;5.72;;;1.10;;
24547;SDS011;12713;51.624;4.924;2022-09-27T16:31:34;4.05;;;1.38;;
24547;SDS011;12713;51.624;4.924;2022-09-27T16:34:00;6.63;;;1.75;;
24547;SDS011;12713;51.624;4.924;2022-09-27T16:36:26;4.93;;;1.60;;
24547;SDS011;12713;51.624;4.924;2022-09-27T16:38:52;3.53;;;1.30;;
24547;SDS011;12713;51.624;4.924;2022-09-27T16:41:19;6.32;;;1.92;;
24547;SDS011;12713;51.624;4.924;2022-09-27T16:43:46;7.70;;;2.25;;
24547;SDS011;12713;51.624;4.924;2022-09-27T16:46:12;9.35;;;3.10;;
24547;SDS011;12713;51.624;4.924;2022-09-27T16:48:41;4.20;;;2.78;;
24547;SDS011;12713;51.624;4.924;2022-09-27T16:51:14;14.13;;;5.88;;
24547;SDS011;12713;51.624;4.924;2022-09-27T16:54:02;17.20;;;9.27;;
24547;SDS011;12713;51.624;4.924;2022-09-27T16:56:32;14.68;;;6.78;;
24547;SDS011;12713;51.624;4.924;2022-09-27T16:58:59;12.95;;;7.18;;
24547;SDS011;12713;51.624;4.924;2022-09-27T17:01:27;7.47;;;2.97;;
24547;SDS011;12713;51.624;4.924;2022-09-27T17:03:53;10.20;;;4.45;;
24547;SDS011;12713;51.624;4.924;2022-09-27T17:06:23;7.53;;;2.80;;
24547;SDS011;12713;51.624;4.924;2022-09-27T17:09:08;6.18;;;2.45;;
24547;SDS011;12713;51.624;4.924;2022-09-27T17:11:35;4.35;;;2.22;;
24547;SDS011;12713;51.624;4.924;2022-09-27T17:14:01;6.47;;;2.85;;
24547;SDS011;12713;51.624;4.924;2022-09-27T17:16:27;4.82;;;2.60;;
24547;SDS011;12713;51.624;4.924;2022-09-27T17:18:53;5.72;;;3.58;;
24547;SDS011;12713;51.624;4.924;2022-09-27T17:21:20;9.15;;;3.17;;
24547;SDS011;12713;51.624;4.924;2022-09-27T17:23:46;6.72;;;2.40;;
24547;SDS011;12713;51.624;4.924;2022-09-27T17:26:16;6.38;;;2.40;;
24547;SDS011;12713;51.624;4.924;2022-09-27T17:28:42;7.13;;;2.40;;
24547;SDS011;12713;51.624;4.924;2022-09-27T17:31:09;7.78;;;3.10;;
24547;SDS011;12713;51.624;4.924;2022-09-27T17:33:36;8.13;;;3.00;;
24547;SDS011;12713;51.624;4.924;2022-09-27T17:36:09;10.82;;;6.43;;
24547;SDS011;12713;51.624;4.924;2022-09-27T17:38:36;10.32;;;5.93;;
24547;SDS011;12713;51.624;4.924;2022-09-27T17:41:03;6.50;;;4.25;;
24547;SDS011;12713;51.624;4.924;2022-09-27T17:43:29;5.97;;;2.97;;
24547;SDS011;12713;51.624;4.924;2022-09-27T17:46:07;6.38;;;3.60;;
24547;SDS011;12713;51.624;4.924;2022-09-27T17:48:34;13.70;;;11.95;;